sensor_id;sensor_type;location;lat;lon;timestamp;P1;durP1;ratioP1;P2;durP2;ratioP2
1591;SDS011;789;51.612;7.510;2023-04-24T00:01:27;1.27;;;1.03;;
1591;SDS011;789;51.612;7.510;2023-04-24T00:03:54;1.13;;;0.90;;
1591;SDS011;789;51.612;7.510;2023-04-24T00:06:24;2.83;;;1.10;;
1591;SDS011;789;51.612;7.510;2023-04-24T00:08:58;1.30;;;0.77;;
1591;SDS011;789;51.612;7.510;2023-04-24T00:11:25;0.97;;;0.80;;
1591;SDS011;789;51.612;7.510;2023-04-24T00:13:52;1.57;;;0.93;;
1591;SDS011;789;51.612;7.510;2023-04-24T00:16:19;1.63;;;0.77;;
1591;SDS011;789;51.612;7.510;2023-04-24T00:18:47;3.43;;;0.97;;
1591;SDS011;789;51.612;7.510;2023-04-24T00:21:14;1.37;;;1.27;;
1591;SDS011;789;51.612;7.510;2023-04-24T00:23:41;1.10;;;1.00;;
1591;SDS011;789;51.612;7.510;2023-04-24T00:26:08;1.40;;;1.10;;
1591;SDS011;789;51.612;7.510;2023-04-24T00:28:35;1.40;;;1.10;;
1591;SDS011;789;51.612;7.510;2023-04-24T00:31:02;1.47;;;1.00;;
1591;SDS011;789;51.612;7.510;2023-04-24T00:33:29;4.63;;;1.40;;
1591;SDS011;789;51.612;7.510;2023-04-24T00:35:57;1.10;;;1.00;;
1591;SDS011;789;51.612;7.510;2023-04-24T00:38:24;3.07;;;1.20;;
1591;SDS011;789;51.612;7.510;2023-04-24T00:40:53;3.40;;;1.20;;
1591;SDS011;789;51.612;7.510;2023-04-24T00:43:20;4.20;;;1.90;;
1591;SDS011;789;51.612;7.510;2023-04-24T00:45:47;1.60;;;1.50;;
1591;SDS011;789;51.612;7.510;2023-04-24T00:48:14;3.17;;;1.10;;
1591;SDS011;789;51.612;7.510;2023-04-24T00:50:41;1.90;;;1.30;;
1591;SDS011;789;51.612;7.510;2023-04-24T00:53:10;1.47;;;1.30;;
1591;SDS011;789;51.612;7.510;2023-04-24T00:55:36;3.40;;;1.30;;
1591;SDS011;789;51.612;7.510;2023-04-24T00:58:04;2.27;;;1.53;;
1591;SDS011;789;51.612;7.510;2023-04-24T01:00:31;3.10;;;1.97;;
1591;SDS011;789;51.612;7.510;2023-04-24T01:02:58;1.87;;;1.50;;
1591;SDS011;789;51.612;7.510;2023-04-24T01:05:26;1.77;;;1.60;;
1591;SDS011;789;51.612;7.510;2023-04-24T01:07:54;1.50;;;1.40;;
1591;SDS011;789;51.612;7.510;2023-04-24T01:10:25;2.37;;;1.37;;
1591;SDS011;789;51.612;7.510;2023-04-24T01:12:55;2.13;;;1.60;;
1591;SDS011;789;51.612;7.510;2023-04-24T01:15:22;4.40;;;1.67;;
1591;SDS011;789;51.612;7.510;2023-04-24T01:17:49;7.07;;;1.70;;
1591;SDS011;789;51.612;7.510;2023-04-24T01:20:16;1.33;;;1.20;;
1591;SDS011;789;51.612;7.510;2023-04-24T01:22:45;1.53;;;1.40;;
1591;SDS011;789;51.612;7.510;2023-04-24T01:25:12;2.57;;;1.43;;
1591;SDS011;789;51.612;7.510;2023-04-24T01:27:39;1.60;;;1.40;;
1591;SDS011;789;51.612;7.510;2023-04-24T01:30:06;1.57;;;1.47;;
1591;SDS011;789;51.612;7.510;2023-04-24T01:32:34;1.60;;;1.50;;
1591;SDS011;789;51.612;7.510;2023-04-24T01:35:01;2.23;;;1.90;;
1591;SDS011;789;51.612;7.510;2023-04-24T01:37:28;4.23;;;2.13;;
1591;SDS011;789;51.612;7.510;2023-04-24T01:39:58;2.10;;;1.83;;
1591;SDS011;789;51.612;7.510;2023-04-24T01:42:25;3.00;;;1.80;;
1591;SDS011;789;51.612;7.510;2023-04-24T01:44:52;3.13;;;1.93;;
1591;SDS011;789;51.612;7.510;2023-04-24T01:47:20;2.20;;;1.90;;
1591;SDS011;789;51.612;7.510;2023-04-24T01:49:48;1.87;;;1.73;;
1591;SDS011;789;51.612;7.510;2023-04-24T01:52:15;1.93;;;1.73;;
1591;SDS011;789;51.612;7.510;2023-04-24T01:54:43;2.73;;;2.10;;
1591;SDS011;789;51.612;7.510;2023-04-24T01:57:11;3.17;;;1.87;;
1591;SDS011;789;51.612;7.510;2023-04-24T01:59:39;1.83;;;1.70;;
1591;SDS011;789;51.612;7.510;2023-04-24T02:02:06;3.37;;;2.10;;
1591;SDS011;789;51.612;7.510;2023-04-24T02:04:33;5.60;;;2.30;;
1591;SDS011;789;51.612;7.510;2023-04-24T02:06:59;2.07;;;1.87;;
1591;SDS011;789;51.612;7.510;2023-04-24T02:09:26;3.27;;;2.60;;
1591;SDS011;789;51.612;7.510;2023-04-24T02:11:53;2.60;;;2.40;;
1591;SDS011;789;51.612;7.510;2023-04-24T02:14:22;2.50;;;2.30;;
1591;SDS011;789;51.612;7.510;2023-04-24T02:16:49;2.53;;;2.23;;
1591;SDS011;789;51.612;7.510;2023-04-24T02:19:16;2.57;;;2.37;;
1591;SDS011;789;51.612;7.510;2023-04-24T02:21:43;3.00;;;2.63;;
1591;SDS011;789;51.612;7.510;2023-04-24T02:24:09;2.73;;;2.53;;
1591;SDS011;789;51.612;7.510;2023-04-24T02:26:36;3.30;;;3.00;;
1591;SDS011;789;51.612;7.510;2023-04-24T02:29:03;4.27;;;3.00;;
1591;SDS011;789;51.612;7.510;2023-04-24T02:31:31;3.40;;;3.10;;
1591;SDS011;789;51.612;7.510;2023-04-24T02:33:58;3.70;;;3.20;;
1591;SDS011;789;51.612;7.510;2023-04-24T02:36:25;3.20;;;2.87;;
1591;SDS011;789;51.612;7.510;2023-04-24T02:38:52;5.80;;;3.30;;
1591;SDS011;789;51.612;7.510;2023-04-24T02:41:19;3.50;;;2.97;;
1591;SDS011;789;51.612;7.510;2023-04-24T02:43:46;3.33;;;2.97;;
1591;SDS011;789;51.612;7.510;2023-04-24T02:46:12;4.47;;;3.40;;
1591;SDS011;789;51.612;7.510;2023-04-24T02:48:41;4.20;;;3.80;;
1591;SDS011;789;51.612;7.510;2023-04-24T02:51:08;4.93;;;4.17;;
1591;SDS011;789;51.612;7.510;2023-04-24T02:53:35;4.93;;;4.53;;
1591;SDS011;789;51.612;7.510;2023-04-24T02:56:02;5.70;;;5.10;;
1591;SDS011;789;51.612;7.510;2023-04-24T02:58:29;6.20;;;5.60;;
1591;SDS011;789;51.612;7.510;2023-04-24T03:00:55;6.80;;;6.10;;
1591;SDS011;789;51.612;7.510;2023-04-24T03:03:22;7.17;;;6.47;;
1591;SDS011;789;51.612;7.510;2023-04-24T03:05:51;7.87;;;6.70;;
1591;SDS011;789;51.612;7.510;2023-04-24T03:08:18;10.80;;;6.90;;
1591;SDS011;789;51.612;7.510;2023-04-24T03:10:45;9.50;;;7.30;;
1591;SDS011;789;51.612;7.510;2023-04-24T03:13:12;9.80;;;7.83;;
1591;SDS011;789;51.612;7.510;2023-04-24T03:15:38;8.90;;;7.07;;
1591;SDS011;789;51.612;7.510;2023-04-24T03:18:05;8.13;;;6.83;;
1591;SDS011;789;51.612;7.510;2023-04-24T03:20:32;9.93;;;8.10;;
1591;SDS011;789;51.612;7.510;2023-04-24T03:23:00;8.90;;;7.97;;
1591;SDS011;789;51.612;7.510;2023-04-24T03:25:31;9.17;;;8.10;;
1591;SDS011;789;51.612;7.510;2023-04-24T03:27:57;11.03;;;8.30;;
1591;SDS011;789;51.612;7.510;2023-04-24T03:30:24;10.90;;;8.57;;
1591;SDS011;789;51.612;7.510;2023-04-24T03:32:51;14.10;;;8.63;;
1591;SDS011;789;51.612;7.510;2023-04-24T03:35:18;10.13;;;8.20;;
1591;SDS011;789;51.612;7.510;2023-04-24T03:37:46;13.10;;;9.60;;
1591;SDS011;789;51.612;7.510;2023-04-24T03:40:14;9.97;;;8.97;;
1591;SDS011;789;51.612;7.510;2023-04-24T03:42:41;11.53;;;9.47;;
1591;SDS011;789;51.612;7.510;2023-04-24T03:45:08;10.60;;;8.57;;
1591;SDS011;789;51.612;7.510;2023-04-24T03:47:36;10.07;;;9.00;;
1591;SDS011;789;51.612;7.510;2023-04-24T03:50:03;11.07;;;9.97;;
1591;SDS011;789;51.612;7.510;2023-04-24T03:52:30;10.30;;;9.20;;
1591;SDS011;789;51.612;7.510;2023-04-24T03:54:56;11.33;;;10.07;;
1591;SDS011;789;51.612;7.510;2023-04-24T03:57:25;12.77;;;9.43;;
1591;SDS011;789;51.612;7.510;2023-04-24T03:59:52;10.63;;;9.00;;
1591;SDS011;789;51.612;7.510;2023-04-24T04:02:19;10.10;;;9.10;;
1591;SDS011;789;51.612;7.510;2023-04-24T04:04:46;11.70;;;9.67;;
1591;SDS011;789;51.612;7.510;2023-04-24T04:07:12;11.93;;;9.30;;
1591;SDS011;789;51.612;7.510;2023-04-24T04:09:42;10.90;;;9.40;;
1591;SDS011;789;51.612;7.510;2023-04-24T04:12:09;11.57;;;10.47;;
1591;SDS011;789;51.612;7.510;2023-04-24T04:14:37;14.03;;;10.90;;
1591;SDS011;789;51.612;7.510;2023-04-24T04:17:04;15.70;;;11.70;;
1591;SDS011;789;51.612;7.510;2023-04-24T04:19:31;14.80;;;11.23;;
1591;SDS011;789;51.612;7.510;2023-04-24T04:21:58;13.77;;;10.93;;
1591;SDS011;789;51.612;7.510;2023-04-24T04:24:25;12.40;;;11.20;;
1591;SDS011;789;51.612;7.510;2023-04-24T04:26:52;13.23;;;11.87;;
1591;SDS011;789;51.612;7.510;2023-04-24T04:29:21;17.50;;;11.83;;
1591;SDS011;789;51.612;7.510;2023-04-24T04:31:50;13.90;;;12.37;;
1591;SDS011;789;51.612;7.510;2023-04-24T04:34:17;18.30;;;12.60;;
1591;SDS011;789;51.612;7.510;2023-04-24T04:36:44;15.30;;;11.13;;
1591;SDS011;789;51.612;7.510;2023-04-24T04:39:11;15.77;;;12.03;;
1591;SDS011;789;51.612;7.510;2023-04-24T04:41:39;19.00;;;12.47;;
1591;SDS011;789;51.612;7.510;2023-04-24T04:44:06;15.60;;;11.63;;
1591;SDS011;789;51.612;7.510;2023-04-24T04:46:35;17.43;;;13.40;;
1591;SDS011;789;51.612;7.510;2023-04-24T04:49:04;14.57;;;12.20;;
1591;SDS011;789;51.612;7.510;2023-04-24T04:51:33;16.40;;;12.83;;
1591;SDS011;789;51.612;7.510;2023-04-24T04:54:00;15.13;;;12.57;;
1591;SDS011;789;51.612;7.510;2023-04-24T04:56:27;14.87;;;12.70;;
1591;SDS011;789;51.612;7.510;2023-04-24T04:58:54;15.90;;;13.20;;
1591;SDS011;789;51.612;7.510;2023-04-24T05:01:21;13.03;;;11.70;;
1591;SDS011;789;51.612;7.510;2023-04-24T05:03:49;15.33;;;13.73;;
1591;SDS011;789;51.612;7.510;2023-04-24T05:06:17;15.23;;;13.50;;
1591;SDS011;789;51.612;7.510;2023-04-24T05:08:44;16.87;;;14.00;;
1591;SDS011;789;51.612;7.510;2023-04-24T05:11:11;15.40;;;13.73;;
1591;SDS011;789;51.612;7.510;2023-04-24T05:13:38;16.13;;;13.23;;
1591;SDS011;789;51.612;7.510;2023-04-24T05:16:04;14.70;;;13.20;;
1591;SDS011;789;51.612;7.510;2023-04-24T05:18:31;14.80;;;13.30;;
1591;SDS011;789;51.612;7.510;2023-04-24T05:20:58;13.30;;;11.50;;
1591;SDS011;789;51.612;7.510;2023-04-24T05:23:26;15.60;;;13.87;;
1591;SDS011;789;51.612;7.510;2023-04-24T05:25:53;16.70;;;13.37;;
1591;SDS011;789;51.612;7.510;2023-04-24T05:28:20;15.17;;;13.00;;
1591;SDS011;789;51.612;7.510;2023-04-24T05:30:47;15.13;;;12.27;;
1591;SDS011;789;51.612;7.510;2023-04-24T05:33:13;17.23;;;13.47;;
1591;SDS011;789;51.612;7.510;2023-04-24T05:35:40;14.77;;;11.87;;
1591;SDS011;789;51.612;7.510;2023-04-24T05:38:10;15.07;;;12.87;;
1591;SDS011;789;51.612;7.510;2023-04-24T05:40:39;17.20;;;12.30;;
1591;SDS011;789;51.612;7.510;2023-04-24T05:43:06;13.87;;;12.37;;
1591;SDS011;789;51.612;7.510;2023-04-24T05:45:33;12.60;;;11.30;;
1591;SDS011;789;51.612;7.510;2023-04-24T05:48:01;12.60;;;11.33;;
1591;SDS011;789;51.612;7.510;2023-04-24T05:50:27;17.00;;;11.53;;
1591;SDS011;789;51.612;7.510;2023-04-24T05:52:54;12.60;;;11.30;;
1591;SDS011;789;51.612;7.510;2023-04-24T05:55:23;22.80;;;12.10;;
1591;SDS011;789;51.612;7.510;2023-04-24T05:57:51;14.40;;;10.90;;
1591;SDS011;789;51.612;7.510;2023-04-24T06:00:18;12.57;;;10.87;;
1591;SDS011;789;51.612;7.510;2023-04-24T06:02:45;10.97;;;9.67;;
1591;SDS011;789;51.612;7.510;2023-04-24T06:05:14;10.40;;;8.77;;
1591;SDS011;789;51.612;7.510;2023-04-24T06:07:40;10.70;;;9.53;;
1591;SDS011;789;51.612;7.510;2023-04-24T06:10:08;8.83;;;7.93;;
1591;SDS011;789;51.612;7.510;2023-04-24T06:12:36;10.10;;;8.73;;
1591;SDS011;789;51.612;7.510;2023-04-24T06:15:06;10.67;;;9.40;;
1591;SDS011;789;51.612;7.510;2023-04-24T06:17:34;11.43;;;8.93;;
1591;SDS011;789;51.612;7.510;2023-04-24T06:20:00;11.03;;;9.40;;
1591;SDS011;789;51.612;7.510;2023-04-24T06:22:28;11.13;;;9.30;;
1591;SDS011;789;51.612;7.510;2023-04-24T06:24:56;12.07;;;9.53;;
1591;SDS011;789;51.612;7.510;2023-04-24T06:27:22;12.73;;;10.57;;
1591;SDS011;789;51.612;7.510;2023-04-24T06:29:49;14.53;;;10.60;;
1591;SDS011;789;51.612;7.510;2023-04-24T06:32:20;12.07;;;10.90;;
1591;SDS011;789;51.612;7.510;2023-04-24T06:34:48;14.67;;;11.23;;
1591;SDS011;789;51.612;7.510;2023-04-24T06:37:16;12.93;;;10.53;;
1591;SDS011;789;51.612;7.510;2023-04-24T06:39:43;13.17;;;10.53;;
1591;SDS011;789;51.612;7.510;2023-04-24T06:42:10;13.07;;;10.60;;
1591;SDS011;789;51.612;7.510;2023-04-24T06:44:36;9.70;;;8.70;;
1591;SDS011;789;51.612;7.510;2023-04-24T06:47:06;10.67;;;8.73;;
1591;SDS011;789;51.612;7.510;2023-04-24T06:49:37;9.30;;;8.40;;
1591;SDS011;789;51.612;7.510;2023-04-24T06:52:05;12.93;;;9.60;;
1591;SDS011;789;51.612;7.510;2023-04-24T06:54:32;9.40;;;8.47;;
1591;SDS011;789;51.612;7.510;2023-04-24T06:56:59;10.53;;;7.80;;
1591;SDS011;789;51.612;7.510;2023-04-24T06:59:27;10.20;;;8.23;;
1591;SDS011;789;51.612;7.510;2023-04-24T07:01:54;7.73;;;7.00;;
1591;SDS011;789;51.612;7.510;2023-04-24T07:04:21;14.63;;;7.57;;
1591;SDS011;789;51.612;7.510;2023-04-24T07:06:51;8.83;;;7.50;;
1591;SDS011;789;51.612;7.510;2023-04-24T07:09:19;8.97;;;7.30;;
1591;SDS011;789;51.612;7.510;2023-04-24T07:11:47;7.57;;;6.77;;
1591;SDS011;789;51.612;7.510;2023-04-24T07:14:14;7.70;;;6.63;;
1591;SDS011;789;51.612;7.510;2023-04-24T07:16:41;7.90;;;6.93;;
1591;SDS011;789;51.612;7.510;2023-04-24T07:19:10;7.00;;;6.20;;
1591;SDS011;789;51.612;7.510;2023-04-24T07:21:37;8.33;;;5.80;;
1591;SDS011;789;51.612;7.510;2023-04-24T07:24:05;6.53;;;5.97;;
1591;SDS011;789;51.612;7.510;2023-04-24T07:26:35;6.37;;;5.83;;
1591;SDS011;789;51.612;7.510;2023-04-24T07:29:04;7.13;;;6.40;;
1591;SDS011;789;51.612;7.510;2023-04-24T07:31:30;6.73;;;6.23;;
1591;SDS011;789;51.612;7.510;2023-04-24T07:33:57;6.73;;;6.13;;
1591;SDS011;789;51.612;7.510;2023-04-24T07:36:24;7.07;;;5.90;;
1591;SDS011;789;51.612;7.510;2023-04-24T07:38:52;6.40;;;5.80;;
1591;SDS011;789;51.612;7.510;2023-04-24T07:41:20;5.90;;;5.37;;
1591;SDS011;789;51.612;7.510;2023-04-24T07:43:49;6.20;;;5.43;;
1591;SDS011;789;51.612;7.510;2023-04-24T07:46:15;6.30;;;5.50;;
1591;SDS011;789;51.612;7.510;2023-04-24T07:48:42;6.30;;;5.80;;
1591;SDS011;789;51.612;7.510;2023-04-24T07:51:09;5.20;;;4.80;;
1591;SDS011;789;51.612;7.510;2023-04-24T07:53:41;13.17;;;11.73;;
1591;SDS011;789;51.612;7.510;2023-04-24T07:56:08;5.20;;;4.80;;
1591;SDS011;789;51.612;7.510;2023-04-24T07:58:36;3.80;;;3.50;;
1591;SDS011;789;51.612;7.510;2023-04-24T08:01:03;4.00;;;3.70;;
1591;SDS011;789;51.612;7.510;2023-04-24T08:03:30;3.93;;;3.13;;
1591;SDS011;789;51.612;7.510;2023-04-24T08:05:57;5.43;;;3.67;;
1591;SDS011;789;51.612;7.510;2023-04-24T08:08:24;3.17;;;2.80;;
1591;SDS011;789;51.612;7.510;2023-04-24T08:10:51;2.97;;;2.70;;
1591;SDS011;789;51.612;7.510;2023-04-24T08:13:18;3.97;;;3.33;;
1591;SDS011;789;51.612;7.510;2023-04-24T08:15:46;5.50;;;3.20;;
1591;SDS011;789;51.612;7.510;2023-04-24T08:18:13;3.20;;;2.60;;
1591;SDS011;789;51.612;7.510;2023-04-24T08:20:40;3.00;;;2.80;;
1591;SDS011;789;51.612;7.510;2023-04-24T08:23:07;3.73;;;2.90;;
1591;SDS011;789;51.612;7.510;2023-04-24T08:25:34;2.70;;;2.50;;
1591;SDS011;789;51.612;7.510;2023-04-24T08:28:01;2.83;;;2.47;;
1591;SDS011;789;51.612;7.510;2023-04-24T08:30:29;3.37;;;3.03;;
1591;SDS011;789;51.612;7.510;2023-04-24T08:32:57;2.87;;;2.50;;
1591;SDS011;789;51.612;7.510;2023-04-24T08:35:24;1.70;;;1.60;;
1591;SDS011;789;51.612;7.510;2023-04-24T08:37:51;3.10;;;1.53;;
1591;SDS011;789;51.612;7.510;2023-04-24T08:40:18;0.90;;;0.90;;
1591;SDS011;789;51.612;7.510;2023-04-24T08:42:49;1.50;;;1.13;;
1591;SDS011;789;51.612;7.510;2023-04-24T08:45:20;0.70;;;0.70;;
1591;SDS011;789;51.612;7.510;2023-04-24T08:47:47;1.60;;;0.60;;
1591;SDS011;789;51.612;7.510;2023-04-24T08:50:19;1.80;;;1.20;;
1591;SDS011;789;51.612;7.510;2023-04-24T08:52:47;2.00;;;1.10;;
1591;SDS011;789;51.612;7.510;2023-04-24T08:55:15;1.00;;;1.00;;
1591;SDS011;789;51.612;7.510;2023-04-24T08:57:43;1.23;;;1.13;;
1591;SDS011;789;51.612;7.510;2023-04-24T09:00:13;1.20;;;1.03;;
1591;SDS011;789;51.612;7.510;2023-04-24T09:02:41;1.17;;;1.00;;
1591;SDS011;789;51.612;7.510;2023-04-24T09:05:10;1.73;;;1.10;;
1591;SDS011;789;51.612;7.510;2023-04-24T09:07:38;1.50;;;1.00;;
1591;SDS011;789;51.612;7.510;2023-04-24T09:10:07;2.10;;;1.30;;
1591;SDS011;789;51.612;7.510;2023-04-24T09:12:35;2.80;;;1.40;;
1591;SDS011;789;51.612;7.510;2023-04-24T09:15:02;1.93;;;1.13;;
1591;SDS011;789;51.612;7.510;2023-04-24T09:17:30;1.20;;;1.10;;
1591;SDS011;789;51.612;7.510;2023-04-24T09:19:58;2.20;;;1.30;;
1591;SDS011;789;51.612;7.510;2023-04-24T09:22:25;1.37;;;1.27;;
1591;SDS011;789;51.612;7.510;2023-04-24T09:25:01;1.77;;;1.43;;
1591;SDS011;789;51.612;7.510;2023-04-24T09:27:30;2.00;;;1.80;;
1591;SDS011;789;51.612;7.510;2023-04-24T09:29:57;1.73;;;1.50;;
1591;SDS011;789;51.612;7.510;2023-04-24T09:32:25;1.53;;;1.43;;
1591;SDS011;789;51.612;7.510;2023-04-24T09:37:38;2.33;;;1.97;;
1591;SDS011;789;51.612;7.510;2023-04-24T09:40:11;1.90;;;1.70;;
1591;SDS011;789;51.612;7.510;2023-04-24T09:42:39;2.43;;;2.23;;
1591;SDS011;789;51.612;7.510;2023-04-24T09:45:09;1.90;;;1.80;;
1591;SDS011;789;51.612;7.510;2023-04-24T09:47:37;2.10;;;1.90;;
1591;SDS011;789;51.612;7.510;2023-04-24T09:50:10;2.60;;;2.40;;
1591;SDS011;789;51.612;7.510;2023-04-24T09:52:42;2.70;;;2.50;;
1591;SDS011;789;51.612;7.510;2023-04-24T09:55:12;3.40;;;3.10;;
1591;SDS011;789;51.612;7.510;2023-04-24T09:57:49;3.30;;;3.10;;
1591;SDS011;789;51.612;7.510;2023-04-24T10:00:18;3.80;;;3.50;;
1591;SDS011;789;51.612;7.510;2023-04-24T10:02:54;3.57;;;3.27;;
1591;SDS011;789;51.612;7.510;2023-04-24T10:05:27;4.00;;;3.70;;
1591;SDS011;789;51.612;7.510;2023-04-24T10:07:56;4.67;;;4.30;;
1591;SDS011;789;51.612;7.510;2023-04-24T10:10:25;4.30;;;3.90;;
1591;SDS011;789;51.612;7.510;2023-04-24T10:12:52;4.73;;;4.33;;
1591;SDS011;789;51.612;7.510;2023-04-24T10:15:20;4.53;;;4.13;;
1591;SDS011;789;51.612;7.510;2023-04-24T10:17:47;5.70;;;5.03;;
1591;SDS011;789;51.612;7.510;2023-04-24T10:20:17;5.13;;;4.73;;
1591;SDS011;789;51.612;7.510;2023-04-24T10:22:48;4.60;;;4.20;;
1591;SDS011;789;51.612;7.510;2023-04-24T10:25:19;5.90;;;4.23;;
1591;SDS011;789;51.612;7.510;2023-04-24T10:27:49;5.33;;;4.83;;
1591;SDS011;789;51.612;7.510;2023-04-24T10:30:17;5.07;;;4.47;;
1591;SDS011;789;51.612;7.510;2023-04-24T10:32:46;4.53;;;4.10;;
1591;SDS011;789;51.612;7.510;2023-04-24T10:35:13;4.10;;;3.70;;
1591;SDS011;789;51.612;7.510;2023-04-24T10:37:42;4.17;;;3.77;;
1591;SDS011;789;51.612;7.510;2023-04-24T10:40:11;4.43;;;3.83;;
1591;SDS011;789;51.612;7.510;2023-04-24T10:42:46;4.80;;;4.00;;
1591;SDS011;789;51.612;7.510;2023-04-24T10:45:18;5.87;;;4.80;;
1591;SDS011;789;51.612;7.510;2023-04-24T10:47:50;4.90;;;3.93;;
1591;SDS011;789;51.612;7.510;2023-04-24T10:50:18;4.60;;;4.00;;
1591;SDS011;789;51.612;7.510;2023-04-24T10:52:46;4.80;;;4.30;;
1591;SDS011;789;51.612;7.510;2023-04-24T10:55:13;5.43;;;4.23;;
1591;SDS011;789;51.612;7.510;2023-04-24T10:57:49;5.43;;;4.33;;
1591;SDS011;789;51.612;7.510;2023-04-24T11:00:28;5.90;;;4.50;;
1591;SDS011;789;51.612;7.510;2023-04-24T11:02:55;5.87;;;5.27;;
1591;SDS011;789;51.612;7.510;2023-04-24T11:05:48;5.70;;;4.73;;
1591;SDS011;789;51.612;7.510;2023-04-24T11:08:16;8.07;;;5.63;;
1591;SDS011;789;51.612;7.510;2023-04-24T11:10:54;7.57;;;5.70;;
1591;SDS011;789;51.612;7.510;2023-04-24T11:13:24;6.73;;;5.03;;
1591;SDS011;789;51.612;7.510;2023-04-24T11:18:41;5.63;;;5.00;;
1591;SDS011;789;51.612;7.510;2023-04-24T11:21:11;7.97;;;5.50;;
1591;SDS011;789;51.612;7.510;2023-04-24T11:23:38;7.30;;;5.77;;
1591;SDS011;789;51.612;7.510;2023-04-24T11:26:12;6.87;;;5.17;;
1591;SDS011;789;51.612;7.510;2023-04-24T11:28:48;6.80;;;5.53;;
1591;SDS011;789;51.612;7.510;2023-04-24T11:31:35;8.97;;;6.37;;
1591;SDS011;789;51.612;7.510;2023-04-24T11:34:09;7.90;;;6.57;;
1591;SDS011;789;51.612;7.510;2023-04-24T11:36:38;8.73;;;6.50;;
1591;SDS011;789;51.612;7.510;2023-04-24T11:39:05;10.73;;;6.83;;
1591;SDS011;789;51.612;7.510;2023-04-24T11:41:33;9.00;;;7.13;;
1591;SDS011;789;51.612;7.510;2023-04-24T11:44:02;8.77;;;6.80;;
1591;SDS011;789;51.612;7.510;2023-04-24T11:46:31;11.00;;;6.97;;
1591;SDS011;789;51.612;7.510;2023-04-24T11:48:58;9.70;;;6.93;;
1591;SDS011;789;51.612;7.510;2023-04-24T11:51:26;12.10;;;7.33;;
1591;SDS011;789;51.612;7.510;2023-04-24T11:53:54;12.13;;;7.53;;
1591;SDS011;789;51.612;7.510;2023-04-24T11:56:21;18.53;;;7.03;;
1591;SDS011;789;51.612;7.510;2023-04-24T11:58:48;12.80;;;7.43;;
1591;SDS011;789;51.612;7.510;2023-04-24T12:01:19;12.80;;;7.33;;
1591;SDS011;789;51.612;7.510;2023-04-24T12:03:47;12.97;;;6.70;;
1591;SDS011;789;51.612;7.510;2023-04-24T12:06:16;9.93;;;6.93;;
1591;SDS011;789;51.612;7.510;2023-04-24T12:08:45;10.93;;;7.20;;
1591;SDS011;789;51.612;7.510;2023-04-24T12:11:14;13.47;;;7.37;;
1591;SDS011;789;51.612;7.510;2023-04-24T12:13:42;14.43;;;7.00;;
1591;SDS011;789;51.612;7.510;2023-04-24T12:16:09;10.00;;;7.27;;
1591;SDS011;789;51.612;7.510;2023-04-24T12:18:42;10.87;;;7.30;;
1591;SDS011;789;51.612;7.510;2023-04-24T12:21:20;11.20;;;7.70;;
1591;SDS011;789;51.612;7.510;2023-04-24T12:23:53;10.30;;;6.67;;
1591;SDS011;789;51.612;7.510;2023-04-24T12:26:21;12.87;;;6.67;;
1591;SDS011;789;51.612;7.510;2023-04-24T12:28:49;12.60;;;7.23;;
1591;SDS011;789;51.612;7.510;2023-04-24T12:31:16;12.30;;;7.40;;
1591;SDS011;789;51.612;7.510;2023-04-24T12:33:45;11.63;;;7.00;;
1591;SDS011;789;51.612;7.510;2023-04-24T12:36:12;14.07;;;7.50;;
1591;SDS011;789;51.612;7.510;2023-04-24T12:38:39;14.10;;;7.87;;
1591;SDS011;789;51.612;7.510;2023-04-24T12:41:07;6.60;;;5.20;;
1591;SDS011;789;51.612;7.510;2023-04-24T12:43:34;9.97;;;6.37;;
1591;SDS011;789;51.612;7.510;2023-04-24T12:46:02;9.23;;;6.30;;
1591;SDS011;789;51.612;7.510;2023-04-24T12:48:29;9.13;;;6.27;;
1591;SDS011;789;51.612;7.510;2023-04-24T12:50:58;8.00;;;4.70;;
1591;SDS011;789;51.612;7.510;2023-04-24T12:53:28;8.67;;;4.37;;
1591;SDS011;789;51.612;7.510;2023-04-24T12:55:56;8.93;;;4.57;;
1591;SDS011;789;51.612;7.510;2023-04-24T12:58:23;10.40;;;5.00;;
1591;SDS011;789;51.612;7.510;2023-04-24T13:00:50;12.33;;;5.20;;
1591;SDS011;789;51.612;7.510;2023-04-24T13:03:17;9.90;;;5.23;;
1591;SDS011;789;51.612;7.510;2023-04-24T13:05:44;11.37;;;4.20;;
1591;SDS011;789;51.612;7.510;2023-04-24T13:08:13;8.63;;;4.30;;
1591;SDS011;789;51.612;7.510;2023-04-24T13:10:40;8.03;;;4.60;;
1591;SDS011;789;51.612;7.510;2023-04-24T13:13:07;6.80;;;4.53;;
1591;SDS011;789;51.612;7.510;2023-04-24T13:15:34;9.53;;;5.03;;
1591;SDS011;789;51.612;7.510;2023-04-24T13:18:01;8.90;;;4.20;;
1591;SDS011;789;51.612;7.510;2023-04-24T13:20:28;6.60;;;4.13;;
1591;SDS011;789;51.612;7.510;2023-04-24T13:22:55;8.70;;;4.37;;
1591;SDS011;789;51.612;7.510;2023-04-24T13:25:23;7.27;;;4.10;;
1591;SDS011;789;51.612;7.510;2023-04-24T13:27:51;7.67;;;4.40;;
1591;SDS011;789;51.612;7.510;2023-04-24T13:30:18;6.17;;;4.10;;
1591;SDS011;789;51.612;7.510;2023-04-24T13:32:45;6.73;;;4.90;;
1591;SDS011;789;51.612;7.510;2023-04-24T13:35:12;9.20;;;4.50;;
1591;SDS011;789;51.612;7.510;2023-04-24T13:37:38;8.60;;;4.80;;
1591;SDS011;789;51.612;7.510;2023-04-24T13:40:06;7.43;;;3.90;;
1591;SDS011;789;51.612;7.510;2023-04-24T13:42:34;6.27;;;3.93;;
1591;SDS011;789;51.612;7.510;2023-04-24T13:45:01;6.80;;;3.80;;
1591;SDS011;789;51.612;7.510;2023-04-24T13:47:30;6.40;;;3.40;;
1591;SDS011;789;51.612;7.510;2023-04-24T13:49:57;5.40;;;3.57;;
1591;SDS011;789;51.612;7.510;2023-04-24T13:52:24;4.87;;;3.30;;
1591;SDS011;789;51.612;7.510;2023-04-24T13:54:50;6.93;;;2.90;;
1591;SDS011;789;51.612;7.510;2023-04-24T13:57:20;3.10;;;2.80;;
1591;SDS011;789;51.612;7.510;2023-04-24T13:59:49;2.50;;;2.30;;
1591;SDS011;789;51.612;7.510;2023-04-24T14:02:16;4.10;;;3.10;;
1591;SDS011;789;51.612;7.510;2023-04-24T14:04:43;3.67;;;2.80;;
1591;SDS011;789;51.612;7.510;2023-04-24T14:07:13;4.17;;;3.10;;
1591;SDS011;789;51.612;7.510;2023-04-24T14:09:39;5.87;;;3.27;;
1591;SDS011;789;51.612;7.510;2023-04-24T14:12:08;4.60;;;3.07;;
1591;SDS011;789;51.612;7.510;2023-04-24T14:14:38;3.63;;;3.03;;
1591;SDS011;789;51.612;7.510;2023-04-24T14:17:07;5.57;;;4.30;;
1591;SDS011;789;51.612;7.510;2023-04-24T14:19:34;10.87;;;3.90;;
1591;SDS011;789;51.612;7.510;2023-04-24T14:22:01;4.37;;;2.90;;
1591;SDS011;789;51.612;7.510;2023-04-24T14:24:27;8.30;;;3.27;;
1591;SDS011;789;51.612;7.510;2023-04-24T14:26:54;4.70;;;2.93;;
1591;SDS011;789;51.612;7.510;2023-04-24T14:29:21;4.23;;;3.40;;
1591;SDS011;789;51.612;7.510;2023-04-24T14:31:48;5.60;;;3.47;;
1591;SDS011;789;51.612;7.510;2023-04-24T14:34:16;3.97;;;3.20;;
1591;SDS011;789;51.612;7.510;2023-04-24T14:36:44;4.07;;;3.67;;
1591;SDS011;789;51.612;7.510;2023-04-24T14:39:11;3.83;;;3.13;;
1591;SDS011;789;51.612;7.510;2023-04-24T14:41:38;5.00;;;3.83;;
1591;SDS011;789;51.612;7.510;2023-04-24T14:44:07;6.10;;;4.27;;
1591;SDS011;789;51.612;7.510;2023-04-24T14:46:34;4.20;;;3.60;;
1591;SDS011;789;51.612;7.510;2023-04-24T14:49:01;4.30;;;3.90;;
1591;SDS011;789;51.612;7.510;2023-04-24T14:51:29;5.23;;;4.20;;
1591;SDS011;789;51.612;7.510;2023-04-24T14:53:56;6.43;;;3.50;;
1591;SDS011;789;51.612;7.510;2023-04-24T14:56:23;7.73;;;4.17;;
1591;SDS011;789;51.612;7.510;2023-04-24T14:58:50;4.83;;;3.80;;
1591;SDS011;789;51.612;7.510;2023-04-24T15:01:17;4.47;;;4.07;;
1591;SDS011;789;51.612;7.510;2023-04-24T15:03:45;5.23;;;4.00;;
1591;SDS011;789;51.612;7.510;2023-04-24T15:06:12;4.60;;;4.20;;
1591;SDS011;789;51.612;7.510;2023-04-24T15:08:40;5.73;;;5.20;;
1591;SDS011;789;51.612;7.510;2023-04-24T15:11:09;6.23;;;5.57;;
1591;SDS011;789;51.612;7.510;2023-04-24T15:13:37;6.73;;;5.27;;
1591;SDS011;789;51.612;7.510;2023-04-24T15:16:04;7.30;;;5.67;;
1591;SDS011;789;51.612;7.510;2023-04-24T15:18:31;10.77;;;6.10;;
1591;SDS011;789;51.612;7.510;2023-04-24T15:20:58;7.07;;;5.00;;
1591;SDS011;789;51.612;7.510;2023-04-24T15:23:25;6.83;;;4.77;;
1591;SDS011;789;51.612;7.510;2023-04-24T15:25:56;6.27;;;5.27;;
1591;SDS011;789;51.612;7.510;2023-04-24T15:28:24;7.47;;;5.60;;
1591;SDS011;789;51.612;7.510;2023-04-24T15:30:51;6.43;;;4.83;;
1591;SDS011;789;51.612;7.510;2023-04-24T15:33:18;8.87;;;5.90;;
1591;SDS011;789;51.612;7.510;2023-04-24T15:35:50;6.50;;;4.40;;